METAR Data
IDs: Format: Raw Decoded Include TAF

Data at: 2014 UTC 01 Oct 2022

METAR for:KAEJ (Buena Vista/Central, CO, US)
Text:KAEJ 011955Z AUTO 13006KT 10SM VCTS 17/01 A3022 RMK AO2 LTG DSNT W AND NW T01680012
Temperature: 16.8°C ( 62°F)
Dewpoint: 1.2°C ( 34°F) [RH = 35%]
Pressure (altimeter):30.22 inches Hg (1023.5 mb)
Winds:from the SE (130 degrees) at 7 MPH (6 knots; 3.1 m/s)
Visibility:10 or more sm (16+ km)
Weather:VCTS (thunderstorm in vicinity)
QC Flag:automated observation with no human augmentation